Chicago O'Hare, IL

7:53 PM CDT on September 02, 2014 (GMT -0500)
Chicago-O'Hare International | Change Station
CLOSE
Current Station
Airport
Location: Chicago,
Elevation: 673 ft
Nearby Weather Stations

Elev 673 ft 41.99 °N, 87.93 °W | Updated 1 hour ago

Scattered Clouds
Scattered Clouds
76 °F
Feels Like 76 °F
N
7
Wind Variable Wind from West

Today
High -- | Low -- °F
--% Chance of Precip.
Yesterday
High -- | Low -- °F
Precip. -- in
6:18 AM 7:23 PM
First Quarter, 56% visible
Pressure 29.88 in
Visibility 10.0 miles
Clouds Scattered Clouds 5500 ft
Scattered Clouds 7000 ft
Dew Point 56 °F
Humidity 50%
Rainfall 0.03 in
Snow Depth Not available.
UV 0 out of 12
Pollen 9.30 out of 12
Ozone Good
PM2.5 Good
Flu Activity Not available.
METAR KORD 022351Z 26006KT 10SM SCT055 SCT070 24/13 A2989 RMK AO2 SLP117 T02440133 10278 20244 58004

More Conditions Fewer Conditions

Pressure 29.88 in
Visibility 10.0 miles
Clouds Scattered Clouds 5500 ft
Scattered Clouds 7000 ft
Dew Point 56 °F
Humidity 50%
Rainfall 0.03 in
Snow Depth Not available.
UV 0 out of 12
Pollen 9.30 out of 12
Ozone Good
PM2.5 Good
Flu Activity Not available.
METAR KORD 022351Z 26006KT 10SM SCT055 SCT070 24/13 A2989 RMK AO2 SLP117 T02440133 10278 20244 58004

More Conditions Fewer Conditions

10-Day Weather Forecast

Almanac

Astronomy

Sep. 02, 2014 Rise Set
Actual Time 6:18 AM CDT 7:23 PM CDT
Civil Twilight 5:49 AM CDT 7:52 PM CDT
Nautical Twilight 5:15 AM CDT 8:26 PM CDT
Astronomical Twilight 4:39 AM CDT 9:01 PM CDT
Moon 2:09 PM CDT (9/2) No Moon Set
Length of Visible Light 14h 02m
Length of Day
13h 05m
Tomorrow will be 2m 43s shorter.
First Quarter, 56% of the Moon is Illuminated
Today
First Quarter
Sep 8
Full
Sep 15
Last Quarter
Sep 24
New
Oct 1
First Quarter

Today's Extremes

State Highs State Lows

Community

WunderPhotos

Upload Photos

1,749,808 photos uploaded!

Nearby

Air Quality

  Air Quality AQ Index Pollutant
Yesterday Good
PM2.5
Yesterday Good
OZONE
Current Good
PM2.5
Current Good
OZONE
Tuesday Good
OZONE
Tuesday Good
PM2.5
Wednesday Good
OZONE
Wednesday Good
PM2.5
Thursday Moderate
OZONE
Thursday Moderate
PM2.5
Friday Moderate
PM2.5
Friday Good
OZONE
Saturday Good
OZONE
Saturday Good
PM2.5
Sunday Good
OZONE
Sunday Good
PM2.5

Snow Depth

Station Depth Elevation
No new snow has been reported.

Earthquake Activity

City Distance Mag. Time & Date
No recent earthquake activity has been reported nearby.
Minimum magnitude displayed is 2.5.

Coastal Water Temperatures

Place Temperature
No Stations Reporting

Nearby Weather Stations